sensor_id;sensor_type;location;lat;lon;timestamp;P1;durP1;ratioP1;P2;durP2;ratioP2
80247;SDS011;69560;52.206;21.018;2023-12-04T00:01:33;35.30;;;22.30;;
80247;SDS011;69560;52.206;21.018;2023-12-04T00:03:58;31.10;;;18.10;;
80247;SDS011;69560;52.206;21.018;2023-12-04T00:06:24;38.50;;;22.70;;
80247;SDS011;69560;52.206;21.018;2023-12-04T00:08:50;35.10;;;21.80;;
80247;SDS011;69560;52.206;21.018;2023-12-04T00:11:16;34.00;;;21.30;;
80247;SDS011;69560;52.206;21.018;2023-12-04T00:13:42;36.10;;;22.50;;
80247;SDS011;69560;52.206;21.018;2023-12-04T00:16:08;29.40;;;18.60;;
80247;SDS011;69560;52.206;21.018;2023-12-04T00:18:34;34.60;;;21.00;;
80247;SDS011;69560;52.206;21.018;2023-12-04T00:21:00;39.50;;;23.50;;
80247;SDS011;69560;52.206;21.018;2023-12-04T00:23:26;27.80;;;17.50;;
80247;SDS011;69560;52.206;21.018;2023-12-04T00:25:53;41.00;;;24.10;;
80247;SDS011;69560;52.206;21.018;2023-12-04T00:28:20;42.40;;;25.80;;
80247;SDS011;69560;52.206;21.018;2023-12-04T00:30:46;27.50;;;17.60;;
80247;SDS011;69560;52.206;21.018;2023-12-04T00:33:12;34.40;;;22.20;;
80247;SDS011;69560;52.206;21.018;2023-12-04T00:35:38;33.90;;;20.60;;
80247;SDS011;69560;52.206;21.018;2023-12-04T00:38:03;35.10;;;21.90;;
80247;SDS011;69560;52.206;21.018;2023-12-04T00:40:29;32.60;;;19.10;;
80247;SDS011;69560;52.206;21.018;2023-12-04T00:42:55;34.80;;;22.10;;
80247;SDS011;69560;52.206;21.018;2023-12-04T00:45:21;32.80;;;21.60;;
80247;SDS011;69560;52.206;21.018;2023-12-04T00:47:46;40.90;;;25.30;;
80247;SDS011;69560;52.206;21.018;2023-12-04T00:50:12;37.70;;;22.60;;
80247;SDS011;69560;52.206;21.018;2023-12-04T00:52:38;41.30;;;24.90;;
80247;SDS011;69560;52.206;21.018;2023-12-04T00:55:04;39.40;;;24.90;;
80247;SDS011;69560;52.206;21.018;2023-12-04T00:57:30;39.90;;;23.80;;
80247;SDS011;69560;52.206;21.018;2023-12-04T01:02:22;44.50;;;25.20;;
80247;SDS011;69560;52.206;21.018;2023-12-04T01:04:48;39.10;;;23.00;;
80247;SDS011;69560;52.206;21.018;2023-12-04T01:07:13;38.70;;;23.50;;
80247;SDS011;69560;52.206;21.018;2023-12-04T01:09:40;38.30;;;24.00;;
80247;SDS011;69560;52.206;21.018;2023-12-04T01:12:06;37.20;;;23.80;;
80247;SDS011;69560;52.206;21.018;2023-12-04T01:14:32;46.10;;;26.20;;
80247;SDS011;69560;52.206;21.018;2023-12-04T01:16:58;43.20;;;25.90;;
80247;SDS011;69560;52.206;21.018;2023-12-04T01:19:24;37.90;;;24.00;;
80247;SDS011;69560;52.206;21.018;2023-12-04T01:21:50;41.10;;;26.30;;
80247;SDS011;69560;52.206;21.018;2023-12-04T01:24:15;39.80;;;24.00;;
80247;SDS011;69560;52.206;21.018;2023-12-04T01:26:41;35.00;;;23.50;;
80247;SDS011;69560;52.206;21.018;2023-12-04T01:29:07;29.10;;;19.30;;
80247;SDS011;69560;52.206;21.018;2023-12-04T01:31:34;38.30;;;22.40;;
80247;SDS011;69560;52.206;21.018;2023-12-04T01:34:00;34.10;;;21.80;;
80247;SDS011;69560;52.206;21.018;2023-12-04T01:36:27;39.50;;;24.00;;
80247;SDS011;69560;52.206;21.018;2023-12-04T01:38:52;34.10;;;20.20;;
80247;SDS011;69560;52.206;21.018;2023-12-04T01:41:18;38.30;;;25.30;;
80247;SDS011;69560;52.206;21.018;2023-12-04T01:46:10;36.50;;;22.30;;
80247;SDS011;69560;52.206;21.018;2023-12-04T01:48:36;36.90;;;23.90;;
80247;SDS011;69560;52.206;21.018;2023-12-04T01:51:04;31.90;;;20.30;;
80247;SDS011;69560;52.206;21.018;2023-12-04T01:53:33;21.90;;;14.40;;
80247;SDS011;69560;52.206;21.018;2023-12-04T01:56:03;24.60;;;17.30;;
80247;SDS011;69560;52.206;21.018;2023-12-04T01:58:29;29.00;;;18.50;;
80247;SDS011;69560;52.206;21.018;2023-12-04T02:00:55;33.10;;;21.70;;
80247;SDS011;69560;52.206;21.018;2023-12-04T02:03:21;29.30;;;18.10;;
80247;SDS011;69560;52.206;21.018;2023-12-04T02:05:47;28.50;;;19.20;;
80247;SDS011;69560;52.206;21.018;2023-12-04T02:08:15;29.80;;;19.50;;
80247;SDS011;69560;52.206;21.018;2023-12-04T02:10:41;26.50;;;16.60;;
80247;SDS011;69560;52.206;21.018;2023-12-04T02:13:06;25.10;;;16.50;;
80247;SDS011;69560;52.206;21.018;2023-12-04T02:17:58;26.80;;;17.30;;
80247;SDS011;69560;52.206;21.018;2023-12-04T02:20:34;11.10;;;8.30;;
80247;SDS011;69560;52.206;21.018;2023-12-04T02:23:01;25.10;;;15.80;;
80247;SDS011;69560;52.206;21.018;2023-12-04T02:25:28;26.00;;;17.90;;
80247;SDS011;69560;52.206;21.018;2023-12-04T02:27:54;23.30;;;16.20;;
80247;SDS011;69560;52.206;21.018;2023-12-04T02:30:24;28.50;;;18.00;;
80247;SDS011;69560;52.206;21.018;2023-12-04T02:32:51;27.40;;;17.00;;
80247;SDS011;69560;52.206;21.018;2023-12-04T02:35:20;23.70;;;15.90;;
80247;SDS011;69560;52.206;21.018;2023-12-04T02:37:48;26.90;;;17.10;;
80247;SDS011;69560;52.206;21.018;2023-12-04T02:40:15;23.50;;;16.10;;
80247;SDS011;69560;52.206;21.018;2023-12-04T02:42:41;24.20;;;15.80;;
80247;SDS011;69560;52.206;21.018;2023-12-04T02:45:07;21.80;;;14.20;;
80247;SDS011;69560;52.206;21.018;2023-12-04T02:49:59;23.90;;;14.30;;
80247;SDS011;69560;52.206;21.018;2023-12-04T02:52:25;23.20;;;15.10;;
80247;SDS011;69560;52.206;21.018;2023-12-04T02:54:51;19.60;;;14.20;;
80247;SDS011;69560;52.206;21.018;2023-12-04T02:57:17;21.40;;;14.00;;
80247;SDS011;69560;52.206;21.018;2023-12-04T02:59:43;18.30;;;12.60;;
80247;SDS011;69560;52.206;21.018;2023-12-04T03:02:08;20.50;;;12.40;;
80247;SDS011;69560;52.206;21.018;2023-12-04T03:04:34;16.40;;;11.90;;
80247;SDS011;69560;52.206;21.018;2023-12-04T03:07:01;19.50;;;12.80;;
80247;SDS011;69560;52.206;21.018;2023-12-04T03:09:27;19.70;;;13.20;;
80247;SDS011;69560;52.206;21.018;2023-12-04T03:11:52;21.10;;;13.20;;
80247;SDS011;69560;52.206;21.018;2023-12-04T03:14:18;20.90;;;14.90;;
80247;SDS011;69560;52.206;21.018;2023-12-04T03:16:44;23.10;;;15.40;;
80247;SDS011;69560;52.206;21.018;2023-12-04T03:19:10;23.60;;;15.50;;
80247;SDS011;69560;52.206;21.018;2023-12-04T03:21:36;22.20;;;15.30;;
80247;SDS011;69560;52.206;21.018;2023-12-04T03:24:02;24.20;;;15.70;;
80247;SDS011;69560;52.206;21.018;2023-12-04T03:26:28;9.70;;;6.10;;
80247;SDS011;69560;52.206;21.018;2023-12-04T03:28:54;21.30;;;11.90;;
80247;SDS011;69560;52.206;21.018;2023-12-04T03:31:21;21.10;;;14.90;;
80247;SDS011;69560;52.206;21.018;2023-12-04T03:33:47;22.40;;;14.80;;
80247;SDS011;69560;52.206;21.018;2023-12-04T03:36:13;23.50;;;15.90;;
80247;SDS011;69560;52.206;21.018;2023-12-04T03:38:39;12.20;;;9.20;;
80247;SDS011;69560;52.206;21.018;2023-12-04T03:41:05;25.10;;;16.20;;
80247;SDS011;69560;52.206;21.018;2023-12-04T03:43:38;27.90;;;17.70;;
80247;SDS011;69560;52.206;21.018;2023-12-04T03:46:04;21.10;;;14.10;;
80247;SDS011;69560;52.206;21.018;2023-12-04T03:48:30;23.30;;;15.10;;
80247;SDS011;69560;52.206;21.018;2023-12-04T03:50:56;22.70;;;15.10;;
80247;SDS011;69560;52.206;21.018;2023-12-04T03:53:21;25.20;;;16.50;;
80247;SDS011;69560;52.206;21.018;2023-12-04T03:55:47;17.00;;;11.50;;
80247;SDS011;69560;52.206;21.018;2023-12-04T03:58:13;23.60;;;16.20;;
80247;SDS011;69560;52.206;21.018;2023-12-04T04:00:39;26.40;;;16.70;;
80247;SDS011;69560;52.206;21.018;2023-12-04T04:03:07;24.60;;;16.00;;
80247;SDS011;69560;52.206;21.018;2023-12-04T04:05:33;23.60;;;15.80;;
80247;SDS011;69560;52.206;21.018;2023-12-04T04:08:00;25.20;;;17.10;;
80247;SDS011;69560;52.206;21.018;2023-12-04T04:10:26;23.00;;;14.90;;
80247;SDS011;69560;52.206;21.018;2023-12-04T04:12:51;20.90;;;12.30;;
80247;SDS011;69560;52.206;21.018;2023-12-04T04:15:17;27.30;;;17.90;;
80247;SDS011;69560;52.206;21.018;2023-12-04T04:17:43;26.80;;;17.40;;
80247;SDS011;69560;52.206;21.018;2023-12-04T04:20:09;31.70;;;17.70;;
80247;SDS011;69560;52.206;21.018;2023-12-04T04:22:37;32.60;;;19.30;;
80247;SDS011;69560;52.206;21.018;2023-12-04T04:25:06;34.90;;;18.60;;
80247;SDS011;69560;52.206;21.018;2023-12-04T04:27:33;28.60;;;18.00;;
80247;SDS011;69560;52.206;21.018;2023-12-04T04:29:59;29.40;;;18.70;;
80247;SDS011;69560;52.206;21.018;2023-12-04T04:32:25;28.80;;;18.10;;
80247;SDS011;69560;52.206;21.018;2023-12-04T04:34:51;29.00;;;17.90;;
80247;SDS011;69560;52.206;21.018;2023-12-04T04:37:17;26.40;;;18.00;;
80247;SDS011;69560;52.206;21.018;2023-12-04T04:39:44;24.60;;;16.10;;
80247;SDS011;69560;52.206;21.018;2023-12-04T04:42:10;28.50;;;18.60;;
80247;SDS011;69560;52.206;21.018;2023-12-04T04:44:36;29.90;;;19.00;;
80247;SDS011;69560;52.206;21.018;2023-12-04T04:47:01;19.80;;;13.40;;
80247;SDS011;69560;52.206;21.018;2023-12-04T04:49:28;27.10;;;17.40;;
80247;SDS011;69560;52.206;21.018;2023-12-04T04:51:53;33.30;;;20.80;;
80247;SDS011;69560;52.206;21.018;2023-12-04T04:54:20;28.40;;;16.70;;
80247;SDS011;69560;52.206;21.018;2023-12-04T04:56:45;31.20;;;18.50;;
80247;SDS011;69560;52.206;21.018;2023-12-04T04:59:11;21.10;;;9.00;;
80247;SDS011;69560;52.206;21.018;2023-12-04T05:01:37;21.40;;;14.70;;
80247;SDS011;69560;52.206;21.018;2023-12-04T05:04:03;26.40;;;15.70;;
80247;SDS011;69560;52.206;21.018;2023-12-04T05:06:29;27.40;;;17.00;;
80247;SDS011;69560;52.206;21.018;2023-12-04T05:08:55;30.50;;;20.50;;
80247;SDS011;69560;52.206;21.018;2023-12-04T05:11:21;25.80;;;17.00;;
80247;SDS011;69560;52.206;21.018;2023-12-04T05:13:47;31.20;;;18.90;;
80247;SDS011;69560;52.206;21.018;2023-12-04T05:16:14;27.80;;;18.30;;
80247;SDS011;69560;52.206;21.018;2023-12-04T05:18:40;19.70;;;13.10;;
80247;SDS011;69560;52.206;21.018;2023-12-04T05:21:09;29.40;;;19.00;;
80247;SDS011;69560;52.206;21.018;2023-12-04T05:23:36;31.40;;;18.40;;
80247;SDS011;69560;52.206;21.018;2023-12-04T05:26:02;30.20;;;18.90;;
80247;SDS011;69560;52.206;21.018;2023-12-04T05:28:29;28.40;;;18.80;;
80247;SDS011;69560;52.206;21.018;2023-12-04T05:30:55;27.60;;;17.80;;
80247;SDS011;69560;52.206;21.018;2023-12-04T05:38:13;29.90;;;18.00;;
80247;SDS011;69560;52.206;21.018;2023-12-04T05:40:40;30.10;;;19.00;;
80247;SDS011;69560;52.206;21.018;2023-12-04T05:43:06;28.70;;;18.30;;
80247;SDS011;69560;52.206;21.018;2023-12-04T05:45:32;29.20;;;17.60;;
80247;SDS011;69560;52.206;21.018;2023-12-04T05:47:58;28.90;;;18.00;;
80247;SDS011;69560;52.206;21.018;2023-12-04T05:50:23;28.00;;;18.10;;
80247;SDS011;69560;52.206;21.018;2023-12-04T05:52:50;35.00;;;20.10;;
80247;SDS011;69560;52.206;21.018;2023-12-04T05:57:43;32.30;;;20.00;;
80247;SDS011;69560;52.206;21.018;2023-12-04T06:00:10;31.40;;;19.80;;
80247;SDS011;69560;52.206;21.018;2023-12-04T06:02:38;32.30;;;20.60;;
80247;SDS011;69560;52.206;21.018;2023-12-04T06:05:07;31.20;;;19.70;;
80247;SDS011;69560;52.206;21.018;2023-12-04T06:07:34;30.80;;;18.10;;
80247;SDS011;69560;52.206;21.018;2023-12-04T06:10:00;29.40;;;18.50;;
80247;SDS011;69560;52.206;21.018;2023-12-04T06:12:26;34.00;;;19.00;;
80247;SDS011;69560;52.206;21.018;2023-12-04T06:14:52;23.50;;;14.30;;
80247;SDS011;69560;52.206;21.018;2023-12-04T06:17:18;32.50;;;19.10;;
80247;SDS011;69560;52.206;21.018;2023-12-04T06:19:45;26.80;;;17.30;;
80247;SDS011;69560;52.206;21.018;2023-12-04T06:22:12;32.10;;;19.50;;
80247;SDS011;69560;52.206;21.018;2023-12-04T06:24:39;30.70;;;19.80;;
80247;SDS011;69560;52.206;21.018;2023-12-04T06:27:06;31.70;;;19.60;;
80247;SDS011;69560;52.206;21.018;2023-12-04T06:29:34;36.90;;;22.00;;
80247;SDS011;69560;52.206;21.018;2023-12-04T06:32:01;27.00;;;14.90;;
80247;SDS011;69560;52.206;21.018;2023-12-04T06:34:27;33.60;;;19.50;;
80247;SDS011;69560;52.206;21.018;2023-12-04T06:36:53;28.50;;;16.80;;
80247;SDS011;69560;52.206;21.018;2023-12-04T06:39:21;34.10;;;20.00;;
80247;SDS011;69560;52.206;21.018;2023-12-04T06:41:48;23.40;;;14.70;;
80247;SDS011;69560;52.206;21.018;2023-12-04T06:44:14;11.90;;;6.90;;
80247;SDS011;69560;52.206;21.018;2023-12-04T06:46:40;38.30;;;23.00;;
80247;SDS011;69560;52.206;21.018;2023-12-04T06:49:11;29.40;;;17.70;;
80247;SDS011;69560;52.206;21.018;2023-12-04T06:51:39;31.60;;;19.70;;
80247;SDS011;69560;52.206;21.018;2023-12-04T06:54:05;27.60;;;16.40;;
80247;SDS011;69560;52.206;21.018;2023-12-04T06:56:31;33.20;;;20.80;;
80247;SDS011;69560;52.206;21.018;2023-12-04T06:58:57;26.50;;;16.70;;
80247;SDS011;69560;52.206;21.018;2023-12-04T07:01:23;33.70;;;20.00;;
80247;SDS011;69560;52.206;21.018;2023-12-04T07:03:49;30.00;;;17.30;;
80247;SDS011;69560;52.206;21.018;2023-12-04T07:06:14;32.80;;;20.20;;
80247;SDS011;69560;52.206;21.018;2023-12-04T07:08:40;37.80;;;22.40;;
80247;SDS011;69560;52.206;21.018;2023-12-04T07:11:06;31.10;;;18.50;;
80247;SDS011;69560;52.206;21.018;2023-12-04T07:13:34;33.50;;;22.20;;
80247;SDS011;69560;52.206;21.018;2023-12-04T07:15:59;32.90;;;21.70;;
80247;SDS011;69560;52.206;21.018;2023-12-04T07:18:26;44.40;;;24.70;;
80247;SDS011;69560;52.206;21.018;2023-12-04T07:20:51;30.90;;;19.60;;
80247;SDS011;69560;52.206;21.018;2023-12-04T07:28:09;31.80;;;18.90;;
80247;SDS011;69560;52.206;21.018;2023-12-04T07:30:35;34.50;;;20.70;;
80247;SDS011;69560;52.206;21.018;2023-12-04T07:33:01;27.90;;;16.40;;
80247;SDS011;69560;52.206;21.018;2023-12-04T07:35:27;39.90;;;23.30;;
80247;SDS011;69560;52.206;21.018;2023-12-04T07:37:53;42.20;;;24.30;;
80247;SDS011;69560;52.206;21.018;2023-12-04T07:40:19;27.00;;;17.80;;
80247;SDS011;69560;52.206;21.018;2023-12-04T07:42:45;31.90;;;20.70;;
80247;SDS011;69560;52.206;21.018;2023-12-04T07:45:10;43.10;;;26.40;;
80247;SDS011;69560;52.206;21.018;2023-12-04T07:47:36;46.60;;;26.20;;
80247;SDS011;69560;52.206;21.018;2023-12-04T07:52:28;38.80;;;24.00;;
80247;SDS011;69560;52.206;21.018;2023-12-04T07:54:54;39.70;;;23.10;;
80247;SDS011;69560;52.206;21.018;2023-12-04T07:57:20;34.30;;;19.90;;
80247;SDS011;69560;52.206;21.018;2023-12-04T07:59:45;40.30;;;24.20;;
80247;SDS011;69560;52.206;21.018;2023-12-04T08:02:11;35.10;;;22.50;;
80247;SDS011;69560;52.206;21.018;2023-12-04T08:04:37;40.70;;;23.10;;
80247;SDS011;69560;52.206;21.018;2023-12-04T08:07:03;38.80;;;23.20;;
80247;SDS011;69560;52.206;21.018;2023-12-04T08:09:29;42.00;;;25.50;;
80247;SDS011;69560;52.206;21.018;2023-12-04T08:11:55;43.50;;;25.10;;
80247;SDS011;69560;52.206;21.018;2023-12-04T08:14:21;41.50;;;24.40;;
80247;SDS011;69560;52.206;21.018;2023-12-04T08:19:13;27.20;;;15.60;;
80247;SDS011;69560;52.206;21.018;2023-12-04T08:21:39;33.40;;;16.80;;
80247;SDS011;69560;52.206;21.018;2023-12-04T08:24:05;42.40;;;23.50;;
80247;SDS011;69560;52.206;21.018;2023-12-04T08:26:31;35.60;;;20.20;;
80247;SDS011;69560;52.206;21.018;2023-12-04T08:28:57;33.40;;;20.40;;
80247;SDS011;69560;52.206;21.018;2023-12-04T08:31:23;40.50;;;23.90;;
80247;SDS011;69560;52.206;21.018;2023-12-04T08:33:48;30.30;;;18.20;;
80247;SDS011;69560;52.206;21.018;2023-12-04T08:36:14;39.00;;;22.70;;
80247;SDS011;69560;52.206;21.018;2023-12-04T08:38:41;36.10;;;22.00;;
80247;SDS011;69560;52.206;21.018;2023-12-04T08:41:06;38.30;;;20.80;;
80247;SDS011;69560;52.206;21.018;2023-12-04T08:43:32;37.10;;;20.40;;
80247;SDS011;69560;52.206;21.018;2023-12-04T08:45:58;31.10;;;18.10;;
80247;SDS011;69560;52.206;21.018;2023-12-04T08:48:26;38.30;;;20.30;;
80247;SDS011;69560;52.206;21.018;2023-12-04T08:50:52;35.30;;;20.50;;
80247;SDS011;69560;52.206;21.018;2023-12-04T08:53:18;38.40;;;22.10;;
80247;SDS011;69560;52.206;21.018;2023-12-04T08:55:43;32.00;;;18.90;;
80247;SDS011;69560;52.206;21.018;2023-12-04T08:58:10;21.10;;;14.80;;
80247;SDS011;69560;52.206;21.018;2023-12-04T09:00:36;34.40;;;20.50;;
80247;SDS011;69560;52.206;21.018;2023-12-04T09:03:03;28.20;;;15.70;;
80247;SDS011;69560;52.206;21.018;2023-12-04T09:05:29;38.80;;;21.90;;
80247;SDS011;69560;52.206;21.018;2023-12-04T09:07:55;43.70;;;24.10;;
80247;SDS011;69560;52.206;21.018;2023-12-04T09:10:20;38.50;;;23.70;;
80247;SDS011;69560;52.206;21.018;2023-12-04T09:12:46;36.80;;;19.90;;
80247;SDS011;69560;52.206;21.018;2023-12-04T09:17:38;32.20;;;18.50;;
80247;SDS011;69560;52.206;21.018;2023-12-04T09:20:06;31.60;;;17.70;;
80247;SDS011;69560;52.206;21.018;2023-12-04T09:22:32;37.90;;;20.30;;
80247;SDS011;69560;52.206;21.018;2023-12-04T09:25:00;34.30;;;20.50;;
80247;SDS011;69560;52.206;21.018;2023-12-04T09:27:26;39.50;;;22.50;;
80247;SDS011;69560;52.206;21.018;2023-12-04T09:29:52;38.60;;;22.30;;
80247;SDS011;69560;52.206;21.018;2023-12-04T09:34:44;24.50;;;14.20;;
80247;SDS011;69560;52.206;21.018;2023-12-04T09:37:10;38.90;;;20.60;;
80247;SDS011;69560;52.206;21.018;2023-12-04T09:39:35;29.10;;;16.70;;
80247;SDS011;69560;52.206;21.018;2023-12-04T09:42:01;33.70;;;19.10;;
80247;SDS011;69560;52.206;21.018;2023-12-04T09:44:28;11.70;;;7.00;;
80247;SDS011;69560;52.206;21.018;2023-12-04T09:46:56;34.70;;;20.90;;
80247;SDS011;69560;52.206;21.018;2023-12-04T09:49:22;39.80;;;22.60;;
80247;SDS011;69560;52.206;21.018;2023-12-04T09:51:49;28.50;;;16.00;;
80247;SDS011;69560;52.206;21.018;2023-12-04T09:54:16;32.10;;;18.70;;
80247;SDS011;69560;52.206;21.018;2023-12-04T09:56:42;40.70;;;23.60;;
80247;SDS011;69560;52.206;21.018;2023-12-04T09:59:09;41.80;;;23.90;;
80247;SDS011;69560;52.206;21.018;2023-12-04T10:01:39;42.00;;;23.20;;
80247;SDS011;69560;52.206;21.018;2023-12-04T10:04:06;35.30;;;19.80;;
80247;SDS011;69560;52.206;21.018;2023-12-04T10:06:32;34.90;;;20.80;;
80247;SDS011;69560;52.206;21.018;2023-12-04T10:08:59;35.80;;;20.30;;
80247;SDS011;69560;52.206;21.018;2023-12-04T10:11:25;35.70;;;21.50;;
80247;SDS011;69560;52.206;21.018;2023-12-04T10:13:52;31.60;;;17.60;;
80247;SDS011;69560;52.206;21.018;2023-12-04T10:16:31;34.10;;;20.00;;
80247;SDS011;69560;52.206;21.018;2023-12-04T10:19:13;36.80;;;22.00;;
80247;SDS011;69560;52.206;21.018;2023-12-04T10:21:49;40.80;;;23.90;;
80247;SDS011;69560;52.206;21.018;2023-12-04T10:24:34;32.60;;;18.00;;
80247;SDS011;69560;52.206;21.018;2023-12-04T10:27:03;36.40;;;22.30;;
80247;SDS011;69560;52.206;21.018;2023-12-04T10:29:40;38.40;;;20.40;;
80247;SDS011;69560;52.206;21.018;2023-12-04T10:32:11;42.80;;;24.30;;
80247;SDS011;69560;52.206;21.018;2023-12-04T10:34:37;34.30;;;19.20;;
80247;SDS011;69560;52.206;21.018;2023-12-04T10:37:04;38.10;;;20.70;;
80247;SDS011;69560;52.206;21.018;2023-12-04T10:42:01;39.90;;;20.90;;
80247;SDS011;69560;52.206;21.018;2023-12-04T10:44:28;37.10;;;21.50;;
80247;SDS011;69560;52.206;21.018;2023-12-04T10:46:56;33.20;;;19.30;;
80247;SDS011;69560;52.206;21.018;2023-12-04T10:49:26;42.10;;;21.00;;
80247;SDS011;69560;52.206;21.018;2023-12-04T10:51:57;37.90;;;21.90;;
80247;SDS011;69560;52.206;21.018;2023-12-04T10:54:27;40.00;;;23.60;;
80247;SDS011;69560;52.206;21.018;2023-12-04T10:56:53;42.30;;;24.20;;
80247;SDS011;69560;52.206;21.018;2023-12-04T10:59:27;41.30;;;24.70;;
80247;SDS011;69560;52.206;21.018;2023-12-04T11:01:57;46.10;;;25.00;;
80247;SDS011;69560;52.206;21.018;2023-12-04T11:04:28;40.70;;;23.70;;
80247;SDS011;69560;52.206;21.018;2023-12-04T11:06:56;37.60;;;22.20;;
80247;SDS011;69560;52.206;21.018;2023-12-04T11:09:26;40.00;;;23.00;;
80247;SDS011;69560;52.206;21.018;2023-12-04T11:11:56;41.70;;;21.60;;
80247;SDS011;69560;52.206;21.018;2023-12-04T11:14:25;30.30;;;17.40;;
80247;SDS011;69560;52.206;21.018;2023-12-04T11:16:57;35.60;;;20.00;;
80247;SDS011;69560;52.206;21.018;2023-12-04T11:22:12;37.20;;;21.50;;
80247;SDS011;69560;52.206;21.018;2023-12-04T11:24:39;22.90;;;12.00;;
80247;SDS011;69560;52.206;21.018;2023-12-04T11:27:06;33.10;;;20.20;;
80247;SDS011;69560;52.206;21.018;2023-12-04T11:29:35;39.50;;;23.40;;
80247;SDS011;69560;52.206;21.018;2023-12-04T11:32:04;36.70;;;22.50;;
80247;SDS011;69560;52.206;21.018;2023-12-04T11:34:32;39.70;;;23.90;;
80247;SDS011;69560;52.206;21.018;2023-12-04T11:37:01;43.40;;;24.40;;
80247;SDS011;69560;52.206;21.018;2023-12-04T11:39:28;42.90;;;23.90;;
80247;SDS011;69560;52.206;21.018;2023-12-04T11:41:54;41.00;;;24.10;;
80247;SDS011;69560;52.206;21.018;2023-12-04T11:44:20;44.30;;;23.30;;
80247;SDS011;69560;52.206;21.018;2023-12-04T11:46:56;41.30;;;24.90;;
80247;SDS011;69560;52.206;21.018;2023-12-04T11:51:59;47.50;;;26.50;;
80247;SDS011;69560;52.206;21.018;2023-12-04T11:54:27;50.20;;;29.50;;
80247;SDS011;69560;52.206;21.018;2023-12-04T12:02:13;37.10;;;19.50;;
80247;SDS011;69560;52.206;21.018;2023-12-04T12:04:40;26.60;;;14.00;;
80247;SDS011;69560;52.206;21.018;2023-12-04T12:07:06;27.40;;;17.10;;
80247;SDS011;69560;52.206;21.018;2023-12-04T12:09:33;35.40;;;21.10;;
80247;SDS011;69560;52.206;21.018;2023-12-04T12:16:55;39.60;;;23.80;;
80247;SDS011;69560;52.206;21.018;2023-12-04T12:19:21;38.80;;;22.60;;
80247;SDS011;69560;52.206;21.018;2023-12-04T12:21:48;41.90;;;23.50;;
80247;SDS011;69560;52.206;21.018;2023-12-04T12:24:14;44.00;;;24.50;;
80247;SDS011;69560;52.206;21.018;2023-12-04T12:26:41;30.00;;;17.40;;
80247;SDS011;69560;52.206;21.018;2023-12-04T12:29:08;37.50;;;23.90;;
80247;SDS011;69560;52.206;21.018;2023-12-04T12:31:35;44.00;;;23.80;;
80247;SDS011;69560;52.206;21.018;2023-12-04T12:34:00;42.10;;;24.60;;
80247;SDS011;69560;52.206;21.018;2023-12-04T12:36:26;48.00;;;26.40;;
80247;SDS011;69560;52.206;21.018;2023-12-04T12:38:53;47.10;;;25.70;;
80247;SDS011;69560;52.206;21.018;2023-12-04T12:41:19;44.40;;;24.60;;
80247;SDS011;69560;52.206;21.018;2023-12-04T12:43:45;62.20;;;23.10;;
80247;SDS011;69560;52.206;21.018;2023-12-04T12:46:13;38.40;;;22.40;;
80247;SDS011;69560;52.206;21.018;2023-12-04T12:48:39;37.50;;;22.40;;
80247;SDS011;69560;52.206;21.018;2023-12-04T12:51:05;39.10;;;21.70;;
80247;SDS011;69560;52.206;21.018;2023-12-04T12:53:32;45.90;;;24.30;;
80247;SDS011;69560;52.206;21.018;2023-12-04T12:55:59;42.60;;;24.10;;
80247;SDS011;69560;52.206;21.018;2023-12-04T12:58:27;40.50;;;22.40;;
80247;SDS011;69560;52.206;21.018;2023-12-04T13:00:54;41.90;;;23.30;;
80247;SDS011;69560;52.206;21.018;2023-12-04T13:03:20;40.50;;;23.00;;
80247;SDS011;69560;52.206;21.018;2023-12-04T13:05:47;35.60;;;21.30;;
80247;SDS011;69560;52.206;21.018;2023-12-04T13:08:13;37.30;;;22.60;;
80247;SDS011;69560;52.206;21.018;2023-12-04T13:10:40;40.70;;;23.20;;
80247;SDS011;69560;52.206;21.018;2023-12-04T13:13:10;34.20;;;21.20;;
80247;SDS011;69560;52.206;21.018;2023-12-04T13:15:36;45.60;;;24.60;;
80247;SDS011;69560;52.206;21.018;2023-12-04T13:18:02;44.30;;;24.40;;
80247;SDS011;69560;52.206;21.018;2023-12-04T13:20:28;46.30;;;25.00;;
80247;SDS011;69560;52.206;21.018;2023-12-04T13:22:54;36.00;;;19.60;;
80247;SDS011;69560;52.206;21.018;2023-12-04T13:25:20;39.60;;;22.40;;
80247;SDS011;69560;52.206;21.018;2023-12-04T13:27:46;37.40;;;20.90;;
80247;SDS011;69560;52.206;21.018;2023-12-04T13:32:38;27.90;;;16.60;;
80247;SDS011;69560;52.206;21.018;2023-12-04T13:35:04;44.80;;;23.20;;
80247;SDS011;69560;52.206;21.018;2023-12-04T13:37:31;33.50;;;19.20;;
80247;SDS011;69560;52.206;21.018;2023-12-04T13:39:58;42.30;;;23.00;;
80247;SDS011;69560;52.206;21.018;2023-12-04T13:42:29;44.30;;;23.70;;
80247;SDS011;69560;52.206;21.018;2023-12-04T13:45:14;43.20;;;25.10;;
80247;SDS011;69560;52.206;21.018;2023-12-04T13:47:40;39.30;;;23.10;;
80247;SDS011;69560;52.206;21.018;2023-12-04T13:50:06;29.70;;;18.60;;
80247;SDS011;69560;52.206;21.018;2023-12-04T13:52:36;29.70;;;18.50;;
80247;SDS011;69560;52.206;21.018;2023-12-04T13:55:03;37.90;;;22.70;;
80247;SDS011;69560;52.206;21.018;2023-12-04T13:57:40;30.30;;;17.60;;
80247;SDS011;69560;52.206;21.018;2023-12-04T14:00:30;35.00;;;21.10;;
80247;SDS011;69560;52.206;21.018;2023-12-04T14:02:56;28.40;;;15.10;;
80247;SDS011;69560;52.206;21.018;2023-12-04T14:05:31;39.40;;;22.80;;
80247;SDS011;69560;52.206;21.018;2023-12-04T14:07:57;36.10;;;21.50;;
80247;SDS011;69560;52.206;21.018;2023-12-04T14:10:24;39.30;;;22.50;;
80247;SDS011;69560;52.206;21.018;2023-12-04T14:12:52;39.50;;;21.60;;
80247;SDS011;69560;52.206;21.018;2023-12-04T14:15:18;40.80;;;24.10;;
80247;SDS011;69560;52.206;21.018;2023-12-04T14:17:45;34.10;;;19.10;;
80247;SDS011;69560;52.206;21.018;2023-12-04T14:20:14;43.10;;;24.50;;
80247;SDS011;69560;52.206;21.018;2023-12-04T14:22:44;44.80;;;25.90;;
80247;SDS011;69560;52.206;21.018;2023-12-04T14:25:14;42.20;;;24.50;;
80247;SDS011;69560;52.206;21.018;2023-12-04T14:27:40;47.40;;;26.10;;
80247;SDS011;69560;52.206;21.018;2023-12-04T14:30:08;44.20;;;26.50;;
80247;SDS011;69560;52.206;21.018;2023-12-04T14:32:35;39.70;;;24.40;;
80247;SDS011;69560;52.206;21.018;2023-12-04T14:35:05;40.50;;;24.90;;
80247;SDS011;69560;52.206;21.018;2023-12-04T14:37:33;42.90;;;26.40;;
80247;SDS011;69560;52.206;21.018;2023-12-04T14:40:00;37.90;;;21.80;;
80247;SDS011;69560;52.206;21.018;2023-12-04T14:44:52;20.20;;;11.70;;
80247;SDS011;69560;52.206;21.018;2023-12-04T14:47:18;44.30;;;25.90;;
80247;SDS011;69560;52.206;21.018;2023-12-04T14:49:44;44.50;;;23.60;;
80247;SDS011;69560;52.206;21.018;2023-12-04T14:52:11;40.40;;;24.60;;
80247;SDS011;69560;52.206;21.018;2023-12-04T14:54:38;50.60;;;29.40;;
80247;SDS011;69560;52.206;21.018;2023-12-04T14:57:18;50.20;;;27.70;;
80247;SDS011;69560;52.206;21.018;2023-12-04T14:59:44;47.60;;;27.40;;
80247;SDS011;69560;52.206;21.018;2023-12-04T15:02:22;47.50;;;27.30;;